Etusivu
METAR-TAF:

METAR-TAF

Lentoasemat :

Dar es Salaam, Tansania

Julius Nyereren kansainvälinen lentoasema

Leveyspiiri: 06-52S, Pituuspiiri: 039-12E, korkeus merenpinnasta: 55 m

Tämänhetkinen sää

Tämä raportti tehtiin 58 minuuttia sitten, kello 09.00 UTC
Tuuli 7 kn kaakosta
Lämpötila 26°C
Kosteus 84%
Ilmanpaine 1016 hPa
Näkyvyys 10 km tai enemmän
Hajonneita pilviä 1800 ft:n korkeudessa
Pilvistä 7000 ft:n korkeudessa
heikkoa sadetta

METAR: HTDA 220900Z 13007KT 9999 -RA BKN018 OVC070 26/23 Q1016 NOSIG

Aika: 12:58 (09:58 UTC)

Sääennuste

Tämä raportti tehtiin 4 tuntia ja 58 minuuttia sitten, kello 05.00 UTC
Ennuste voimassa 22. päivästä klo 06 UTC - 23. päivään klo 12 UTC
Tuuli 10 kn idästä
Näkyvyys 10 km tai enemmän
Hajanaisia pilviä 2500 ft:n korkeudessa
Tulossa
22. päivästä klo 21 UTC - 22. päivään klo 24 UTC
Tuuli kn pohjoisesta
Muutamia pilviä 1500 ft:n korkeudessa

TAF: HTDA 220500Z 2206/2312 08010KT 9999 SCT025 BECMG 2221/2224 00000KT FEW015

Säähavainnot ja -ennusteet yli 4000 lentoasemalta (METAR- ja TAF-raportit).

Käytössä olevat sääasemat on merkitty karttaan keltaisilla ja punaisilla pisteillä.

Aseta hiiri pisteen päälle nähdäksesi sääaseman nimen.

Klikkaa sitten nähdäksesi säähavainnot ja -ennusteet.

Kartan vaihtaminen: klikkaa mustalla rastilla varustettuja vihreitä pisteitä, niin voit zoomata sisään; viivalla varustettua vihreää pistettä, niin voit zoomata ulos tai vihreitä nuolia, niin pääset viereisille kartoille.


METAR-TAF: